createdAt,value
2023-04-07T00:00:30.016Z,2.33
2023-04-07T00:03:58.928Z,2.17
2023-04-07T00:07:06.214Z,1.92
2023-04-07T00:10:32.445Z,1.85
2023-04-07T00:13:40.648Z,1.92
2023-04-07T00:16:46.947Z,2.20
2023-04-07T00:20:01.620Z,2.28
2023-04-07T00:23:12.766Z,2.33
2023-04-07T00:26:22.818Z,2.33
2023-04-07T00:29:41.447Z,2.75
2023-04-07T00:32:46.891Z,2.65
2023-04-07T00:35:59.025Z,2.55
2023-04-07T00:39:12.816Z,2.55
2023-04-07T00:42:22.784Z,2.25
2023-04-07T00:45:38.882Z,2.30
2023-04-07T00:48:52.194Z,2.67
2023-04-07T00:51:58.939Z,2.30
2023-04-07T00:55:06.937Z,2.17
2023-04-07T00:58:17.841Z,2.88
2023-04-07T01:01:27.460Z,3.17
2023-04-07T01:04:43.014Z,2.63
2023-04-07T01:07:58.817Z,2.83
2023-04-07T01:11:07.216Z,2.90
2023-04-07T01:14:22.801Z,2.40
2023-04-07T01:17:33.235Z,2.35
2023-04-07T01:20:42.612Z,2.45
2023-04-07T01:24:03.633Z,2.95
2023-04-07T01:27:20.547Z,2.75
2023-04-07T01:30:35.049Z,1.85
2023-04-07T01:33:42.859Z,2.60
2023-04-07T01:36:54.959Z,2.30
2023-04-07T01:40:10.767Z,3.20
2023-04-07T01:43:19.240Z,2.97
2023-04-07T01:46:30.900Z,2.55
2023-04-07T01:49:39.140Z,2.75
2023-04-07T01:52:45.601Z,2.80
2023-04-07T01:55:51.180Z,2.80
2023-04-07T01:58:58.478Z,2.90
2023-04-07T02:02:07.403Z,2.22
2023-04-07T02:05:19.973Z,3.20
2023-04-07T02:08:29.572Z,2.70
2023-04-07T02:11:36.689Z,2.33
2023-04-07T02:14:42.312Z,2.10
2023-04-07T02:17:53.217Z,2.55
2023-04-07T02:21:00.931Z,2.65
2023-04-07T02:24:09.405Z,2.55
2023-04-07T02:27:14.868Z,2.20
2023-04-07T02:30:23.010Z,2.25
2023-04-07T02:33:31.142Z,1.92
2023-04-07T02:36:37.079Z,2.85
2023-04-07T02:39:42.202Z,2.47
2023-04-07T02:42:48.636Z,2.55
2023-04-07T02:45:55.574Z,2.97
2023-04-07T02:49:04.465Z,2.60
2023-04-07T02:52:09.634Z,2.22
2023-04-07T02:55:15.724Z,2.20
2023-04-07T02:58:21.511Z,3.10
2023-04-07T03:01:28.278Z,2.40
2023-04-07T03:04:38.812Z,2.97
2023-04-07T03:07:47.068Z,2.67
2023-04-07T03:10:55.166Z,4.47
2023-04-07T03:14:02.071Z,3.08
2023-04-07T03:17:07.775Z,2.40
2023-04-07T03:20:17.653Z,2.80
2023-04-07T03:23:24.190Z,2.58
2023-04-07T03:26:30.045Z,2.95
2023-04-07T03:29:35.539Z,3.28
2023-04-07T03:32:41.452Z,2.63
2023-04-07T03:35:49.876Z,2.47
2023-04-07T03:38:55.964Z,1.70
2023-04-07T03:42:02.471Z,2.53
2023-04-07T03:45:09.206Z,2.83
2023-04-07T03:48:17.756Z,2.50
2023-04-07T03:51:28.336Z,2.20
2023-04-07T03:54:35.636Z,2.10
2023-04-07T03:57:41.592Z,2.30
2023-04-07T04:00:47.146Z,2.00
2023-04-07T04:03:53.079Z,1.98
2023-04-07T04:07:02.252Z,2.33
2023-04-07T04:10:08.555Z,1.73
2023-04-07T04:13:13.832Z,2.05
2023-04-07T04:16:19.508Z,1.98
2023-04-07T04:19:24.868Z,1.90
2023-04-07T04:22:33.642Z,2.28
2023-04-07T04:25:39.903Z,1.70
2023-04-07T04:28:45.729Z,2.90
2023-04-07T04:31:51.718Z,2.63
2023-04-07T04:34:57.937Z,3.03
2023-04-07T04:38:08.897Z,3.00
2023-04-07T04:41:17.024Z,2.15
2023-04-07T04:44:22.739Z,3.13
2023-04-07T04:47:28.281Z,2.67
2023-04-07T04:50:33.596Z,2.55
2023-04-07T04:53:46.266Z,2.72
2023-04-07T04:56:55.270Z,3.40
2023-04-07T05:00:01.395Z,2.92
2023-04-07T05:03:07.086Z,3.10
2023-04-07T05:06:13.523Z,3.08
2023-04-07T05:09:22.033Z,2.97
2023-04-07T05:12:31.348Z,2.88
2023-04-07T05:15:37.572Z,2.38
2023-04-07T05:18:43.805Z,2.60
2023-04-07T05:21:49.518Z,3.35
2023-04-07T05:25:00.329Z,3.53
2023-04-07T05:28:08.110Z,2.25
2023-04-07T05:31:13.788Z,2.97
2023-04-07T05:34:20.572Z,3.38
2023-04-07T05:37:27.368Z,3.55
2023-04-07T05:40:54.430Z,2.63
2023-04-07T05:44:01.426Z,2.90
2023-04-07T05:47:09.611Z,3.42
2023-04-07T05:50:25.279Z,4.15
2023-04-07T05:53:33.324Z,3.97
2023-04-07T05:56:44.579Z,3.70
2023-04-07T05:59:51.109Z,2.90
2023-04-07T06:03:07.115Z,2.80
2023-04-07T06:06:13.756Z,2.65
2023-04-07T06:09:25.936Z,2.83
2023-04-07T06:12:43.305Z,2.03
2023-04-07T06:15:53.414Z,2.35
2023-04-07T06:19:00.735Z,2.20
2023-04-07T06:22:10.576Z,1.75
2023-04-07T06:25:16.509Z,2.38
2023-04-07T06:28:30.260Z,2.88
2023-04-07T06:31:36.839Z,1.85
2023-04-07T06:34:44.655Z,2.58
2023-04-07T06:37:54.599Z,2.17
2023-04-07T06:41:06.010Z,1.85
2023-04-07T06:44:14.897Z,1.80
2023-04-07T06:47:29.212Z,1.58
2023-04-07T06:50:37.597Z,2.28
2023-04-07T06:53:44.564Z,1.63
2023-04-07T06:56:53.646Z,1.83
2023-04-07T07:00:08.225Z,2.60
2023-04-07T07:03:13.892Z,1.70
2023-04-07T07:06:20.627Z,1.40
2023-04-07T07:09:53.640Z,1.65
2023-04-07T07:25:04.295Z,0.97
2023-04-07T07:29:10.584Z,1.25
2023-04-07T07:32:50.890Z,1.25
2023-04-07T07:48:43.003Z,2.35
2023-04-07T07:53:07.655Z,2.00
2023-04-07T07:56:56.144Z,2.42
2023-04-07T08:00:37.372Z,2.10
2023-04-07T08:16:18.997Z,2.35
2023-04-07T08:19:56.404Z,2.90
2023-04-07T08:23:02.418Z,3.65
2023-04-07T08:26:12.594Z,4.28
2023-04-07T08:30:00.966Z,3.92
2023-04-07T08:33:12.944Z,5.28
2023-04-07T08:40:35.676Z,6.65
2023-04-07T08:43:50.007Z,7.57
2023-04-07T08:46:59.864Z,8.10
2023-04-07T08:50:25.044Z,8.68
2023-04-07T08:53:49.041Z,6.25
2023-04-07T08:58:02.069Z,12.75
2023-04-07T09:02:07.922Z,13.80
2023-04-07T09:06:05.483Z,6.82
2023-04-07T09:13:17.828Z,5.47
2023-04-07T09:16:43.759Z,7.35
2023-04-07T09:20:04.140Z,11.82
2023-04-07T09:23:19.961Z,9.45
2023-04-07T09:26:31.748Z,8.98
2023-04-07T09:29:52.177Z,9.25
2023-04-07T09:33:01.558Z,7.43
2023-04-07T09:36:10.870Z,3.97
2023-04-07T09:39:16.880Z,6.72
2023-04-07T09:50:01.290Z,7.18
2023-04-07T09:53:49.770Z,6.63
2023-04-07T09:57:06.273Z,5.05
2023-04-07T10:00:19.942Z,7.47
2023-04-07T10:03:51.746Z,7.80
2023-04-07T10:07:20.296Z,8.27
2023-04-07T10:10:32.980Z,8.75
2023-04-07T10:13:41.457Z,7.60
2023-04-07T10:17:02.948Z,10.60
2023-04-07T10:20:15.092Z,8.38
2023-04-07T10:23:53.009Z,4.30
2023-04-07T10:27:03.562Z,5.47
2023-04-07T10:30:28.144Z,6.10
2023-04-07T10:34:18.298Z,6.30
2023-04-07T10:42:16.640Z,4.82
2023-04-07T10:45:52.598Z,5.20
2023-04-07T10:49:27.079Z,4.85
2023-04-07T10:56:28.889Z,8.35
2023-04-07T10:59:53.440Z,6.65
2023-04-07T11:03:06.140Z,7.55
2023-04-07T11:06:17.076Z,5.15
2023-04-07T11:09:26.184Z,4.40
2023-04-07T11:12:41.793Z,4.13
2023-04-07T11:15:50.835Z,3.67
2023-04-07T11:19:01.491Z,4.50
2023-04-07T11:22:30.370Z,4.65
2023-04-07T11:30:08.502Z,3.78
2023-04-07T11:33:41.101Z,5.10
2023-04-07T11:40:39.494Z,6.75
2023-04-07T11:43:59.287Z,5.40
2023-04-07T11:51:32.848Z,5.85
2023-04-07T12:02:24.816Z,7.03
2023-04-07T12:05:56.234Z,6.63
2023-04-07T12:09:38.746Z,6.43
2023-04-07T12:17:00.128Z,6.65
2023-04-07T12:24:18.996Z,6.10
2023-04-07T12:27:36.032Z,5.95
2023-04-07T12:30:48.267Z,5.43
2023-04-07T12:33:53.788Z,5.75
2023-04-07T12:36:59.865Z,5.32
2023-04-07T12:40:41.029Z,6.28
2023-04-07T12:44:34.557Z,5.63
2023-04-07T12:51:33.331Z,6.35
2023-04-07T12:54:59.311Z,4.80
2023-04-07T12:58:25.268Z,4.30
2023-04-07T13:01:48.351Z,4.28
2023-04-07T13:05:32.045Z,3.78
2023-04-07T13:08:59.736Z,4.35
2023-04-07T13:15:48.322Z,4.70
2023-04-07T13:19:17.180Z,3.83
2023-04-07T13:26:51.992Z,3.95
2023-04-07T13:30:39.561Z,4.57
2023-04-07T13:34:14.940Z,3.92
2023-04-07T13:45:06.062Z,4.22
2023-04-07T13:48:13.536Z,3.83
2023-04-07T13:51:25.781Z,4.38
2023-04-07T13:54:50.912Z,4.18
2023-04-07T13:58:27.323Z,4.95
2023-04-07T14:05:53.284Z,4.53
2023-04-07T14:09:13.968Z,3.90
2023-04-07T14:12:35.554Z,5.07
2023-04-07T14:16:01.067Z,5.80
2023-04-07T14:19:18.881Z,6.13
2023-04-07T14:22:39.355Z,4.30
2023-04-07T14:26:21.483Z,5.18
2023-04-07T14:29:55.892Z,5.00
2023-04-07T14:33:56.050Z,5.35
2023-04-07T14:37:58.626Z,4.28
2023-04-07T14:41:17.358Z,5.28
2023-04-07T14:44:33.588Z,5.93
2023-04-07T14:48:21.973Z,6.82
2023-04-07T14:51:33.582Z,5.18
2023-04-07T14:55:00.056Z,5.80
2023-04-07T14:58:52.663Z,6.10
2023-04-07T15:06:19.500Z,6.13
2023-04-07T15:09:48.682Z,8.00
2023-04-07T15:13:30.104Z,5.30
2023-04-07T15:16:53.228Z,7.57
2023-04-07T15:24:25.927Z,8.30
2023-04-07T15:28:32.367Z,8.15
2023-04-07T15:32:23.999Z,9.02
2023-04-07T15:35:51.192Z,9.05
2023-04-07T15:39:34.349Z,8.82
2023-04-07T15:42:58.635Z,9.07
2023-04-07T15:46:06.723Z,6.90
2023-04-07T15:49:43.148Z,10.40
2023-04-07T15:53:09.736Z,9.18
2023-04-07T15:56:17.426Z,9.35
2023-04-07T15:59:26.364Z,9.77
2023-04-07T16:02:42.143Z,11.15
2023-04-07T16:05:56.287Z,10.38
2023-04-07T16:09:21.319Z,13.43
2023-04-07T16:12:38.217Z,9.82
2023-04-07T16:16:00.493Z,9.23
2023-04-07T16:19:44.300Z,10.95
2023-04-07T16:23:00.126Z,13.05
2023-04-07T16:26:20.806Z,12.70
2023-04-07T16:29:35.859Z,9.93
2023-04-07T16:32:46.354Z,9.15
2023-04-07T16:35:59.928Z,8.77
2023-04-07T16:39:09.096Z,10.70
2023-04-07T16:42:14.743Z,11.73
2023-04-07T16:45:30.146Z,9.73
2023-04-07T16:48:39.140Z,13.57
2023-04-07T16:51:53.248Z,10.55
2023-04-07T16:55:01.855Z,11.57
2023-04-07T16:58:07.852Z,13.35
2023-04-07T17:01:16.027Z,12.40
2023-04-07T17:04:23.867Z,9.07
2023-04-07T17:07:32.744Z,11.85
2023-04-07T17:10:45.705Z,12.57
2023-04-07T17:13:57.541Z,12.57
2023-04-07T17:20:21.397Z,11.35
2023-04-07T17:23:29.889Z,13.25
2023-04-07T17:26:39.532Z,12.25
2023-04-07T17:29:45.877Z,11.82
2023-04-07T17:32:54.105Z,12.48
2023-04-07T17:36:00.989Z,10.75
2023-04-07T17:39:12.818Z,11.00
2023-04-07T17:42:22.633Z,14.15
2023-04-07T17:45:32.872Z,12.40
2023-04-07T17:48:44.228Z,12.57
2023-04-07T17:51:52.210Z,12.02
2023-04-07T17:55:04.232Z,11.10
2023-04-07T17:58:21.399Z,13.00
2023-04-07T18:01:33.304Z,10.02
2023-04-07T18:04:44.079Z,7.97
2023-04-07T18:07:55.776Z,12.27
2023-04-07T18:11:02.022Z,12.00
2023-04-07T18:14:11.954Z,11.50
2023-04-07T18:17:17.758Z,9.52
2023-04-07T18:20:27.933Z,11.88
2023-04-07T18:23:36.416Z,11.13
2023-04-07T18:26:52.533Z,10.73
2023-04-07T18:30:01.297Z,8.98
2023-04-07T18:33:07.903Z,11.68
2023-04-07T18:36:16.558Z,12.13
2023-04-07T18:39:31.247Z,11.32
2023-04-07T18:42:40.137Z,11.75
2023-04-07T18:45:56.740Z,10.75
2023-04-07T18:49:10.572Z,11.23
2023-04-07T18:52:18.659Z,9.25
2023-04-07T18:55:35.312Z,10.10
2023-04-07T18:58:46.188Z,10.88
2023-04-07T19:01:57.606Z,7.75
2023-04-07T19:05:05.296Z,9.80
2023-04-07T19:08:14.512Z,9.30
2023-04-07T19:11:24.172Z,10.88
2023-04-07T19:14:36.726Z,7.50
2023-04-07T19:17:46.584Z,7.82
2023-04-07T19:20:54.135Z,10.68
2023-04-07T19:24:00.143Z,8.88
2023-04-07T19:27:07.226Z,9.35
2023-04-07T19:30:15.096Z,8.10
2023-04-07T19:33:25.439Z,9.88
2023-04-07T19:36:35.606Z,9.23
2023-04-07T19:39:55.642Z,9.73
2023-04-07T19:43:09.284Z,8.18
2023-04-07T19:46:14.992Z,8.55
2023-04-07T19:49:26.251Z,7.45
2023-04-07T19:52:36.407Z,10.27
2023-04-07T19:55:52.497Z,9.65
2023-04-07T19:58:58.795Z,10.85
2023-04-07T20:02:09.131Z,9.10
2023-04-07T20:05:18.092Z,9.00
2023-04-07T20:08:24.495Z,7.82
2023-04-07T20:11:34.732Z,10.98
2023-04-07T20:14:40.926Z,9.05
2023-04-07T20:17:49.276Z,11.02
2023-04-07T20:21:06.464Z,8.60
2023-04-07T20:24:14.024Z,10.05
2023-04-07T20:27:25.493Z,8.52
2023-04-07T20:30:37.321Z,7.60
2023-04-07T20:33:43.382Z,9.52
2023-04-07T20:36:52.469Z,8.40
2023-04-07T20:40:09.556Z,10.43
2023-04-07T20:43:18.337Z,9.30
2023-04-07T20:46:26.782Z,10.52
2023-04-07T20:49:36.115Z,8.82
2023-04-07T20:52:48.367Z,8.90
2023-04-07T20:55:56.449Z,9.48
2023-04-07T20:59:02.386Z,8.85
2023-04-07T21:02:11.674Z,9.02
2023-04-07T21:05:20.775Z,10.18
2023-04-07T21:08:32.532Z,9.40
2023-04-07T21:11:39.380Z,9.80
2023-04-07T21:14:46.039Z,9.77
2023-04-07T21:17:57.621Z,9.20
2023-04-07T21:21:09.223Z,8.05
2023-04-07T21:24:18.815Z,7.60
2023-04-07T21:27:26.766Z,8.95
2023-04-07T21:30:33.010Z,10.30
2023-04-07T21:33:39.525Z,8.07
2023-04-07T21:36:45.150Z,10.30
2023-04-07T21:39:56.020Z,9.18
2023-04-07T21:43:03.980Z,9.13
2023-04-07T21:46:09.346Z,9.90
2023-04-07T21:49:15.851Z,9.02
2023-04-07T21:52:21.960Z,7.68
2023-04-07T21:55:30.430Z,10.38
2023-04-07T21:58:35.933Z,10.32
2023-04-07T22:01:47.296Z,11.93
2023-04-07T22:04:53.876Z,9.65
2023-04-07T22:08:00.346Z,9.57
2023-04-07T22:11:09.063Z,10.13
2023-04-07T22:14:15.158Z,9.48
2023-04-07T22:17:20.671Z,7.32
2023-04-07T22:20:27.454Z,9.68
2023-04-07T22:23:33.054Z,9.15
2023-04-07T22:26:41.949Z,9.15
2023-04-07T22:29:47.842Z,9.88
2023-04-07T22:32:53.890Z,11.18
2023-04-07T22:35:59.413Z,10.20
2023-04-07T22:39:05.974Z,11.40
2023-04-07T22:42:15.235Z,10.85
2023-04-07T22:45:22.383Z,9.25
2023-04-07T22:48:28.309Z,8.50
2023-04-07T22:51:34.348Z,9.48
2023-04-07T22:54:41.043Z,10.57
2023-04-07T22:57:50.874Z,9.07
2023-04-07T23:00:56.447Z,11.45
2023-04-07T23:04:02.448Z,9.20
2023-04-07T23:07:07.919Z,8.88
2023-04-07T23:10:15.370Z,9.27
2023-04-07T23:13:23.963Z,9.15
2023-04-07T23:16:29.740Z,9.07
2023-04-07T23:19:35.283Z,10.95
2023-04-07T23:22:40.835Z,10.20
2023-04-07T23:25:45.985Z,10.02
2023-04-07T23:28:54.270Z,8.93
2023-04-07T23:32:04.533Z,8.80
2023-04-07T23:35:10.940Z,8.73
2023-04-07T23:38:16.512Z,10.60
2023-04-07T23:41:22.473Z,8.38
2023-04-07T23:44:30.142Z,10.20
2023-04-07T23:47:35.842Z,9.82
2023-04-07T23:50:44.458Z,7.95
2023-04-07T23:53:50.604Z,9.52
2023-04-07T23:56:56.118Z,9.38
